Walnut City, Iowa
Current Conditions -  °F | °C
As of 7:50 AM on Sunday 25 Jan 2015 (Local Time) from KTVK Reporting Station
Unknown Precip Unknown Precip  
Wind Chill: -1°   Ceiling: 100
Heat Index:   Visibility: 9mi
Dew Point:   Wind: 10mph
Humidity: 100%   Direction: 350°N
Pressure: 29.61"   Gusts: NA
Location:  40.8017°N, 92.9289°W
Report Text: KTVK 251350Z AUTO 35009KT 9SM UP OVC001 03/03 A2961 RMK AO2 P0005
Loading
Personal Weather Stations






























Interactive Weather Map New forecast layout! Learn more

10-Day Weather Forecast

Advertisements
Track Severe Weather on mobile